sensor_id;sensor_type;location;lat;lon;timestamp;temperature;humidity
15819;DHT22;8010;53.986;12.106;2023-10-09T00:02:12;8.60;99.90
15819;DHT22;8010;53.986;12.106;2023-10-09T00:04:40;8.60;99.90
15819;DHT22;8010;53.986;12.106;2023-10-09T00:07:08;8.60;99.90
15819;DHT22;8010;53.986;12.106;2023-10-09T00:09:37;8.60;99.90
15819;DHT22;8010;53.986;12.106;2023-10-09T00:12:16;8.50;99.90
15819;DHT22;8010;53.986;12.106;2023-10-09T00:14:47;8.50;99.90
15819;DHT22;8010;53.986;12.106;2023-10-09T00:17:17;8.40;99.90
15819;DHT22;8010;53.986;12.106;2023-10-09T00:19:46;8.40;99.90
15819;DHT22;8010;53.986;12.106;2023-10-09T00:22:17;8.40;99.90
15819;DHT22;8010;53.986;12.106;2023-10-09T00:24:49;8.40;99.90
15819;DHT22;8010;53.986;12.106;2023-10-09T00:27:34;8.40;99.90
15819;DHT22;8010;53.986;12.106;2023-10-09T00:30:01;8.40;99.90
15819;DHT22;8010;53.986;12.106;2023-10-09T00:32:27;8.40;99.90
15819;DHT22;8010;53.986;12.106;2023-10-09T00:34:58;8.40;99.90
15819;DHT22;8010;53.986;12.106;2023-10-09T00:37:39;8.40;99.90
15819;DHT22;8010;53.986;12.106;2023-10-09T00:40:05;8.40;99.90
15819;DHT22;8010;53.986;12.106;2023-10-09T00:42:45;8.40;99.90
15819;DHT22;8010;53.986;12.106;2023-10-09T00:45:14;8.40;99.90
15819;DHT22;8010;53.986;12.106;2023-10-09T00:47:50;8.40;99.90
15819;DHT22;8010;53.986;12.106;2023-10-09T00:50:16;8.40;99.90
15819;DHT22;8010;53.986;12.106;2023-10-09T00:52:44;8.50;99.90
15819;DHT22;8010;53.986;12.106;2023-10-09T00:55:19;8.40;99.90
15819;DHT22;8010;53.986;12.106;2023-10-09T00:58:05;8.40;99.90
15819;DHT22;8010;53.986;12.106;2023-10-09T01:00:35;8.50;99.90
15819;DHT22;8010;53.986;12.106;2023-10-09T01:03:15;8.50;99.90
15819;DHT22;8010;53.986;12.106;2023-10-09T01:05:41;8.50;99.90
15819;DHT22;8010;53.986;12.106;2023-10-09T01:08:17;8.50;99.90
15819;DHT22;8010;53.986;12.106;2023-10-09T01:10:50;8.50;99.90
15819;DHT22;8010;53.986;12.106;2023-10-09T01:13:25;8.50;99.90
15819;DHT22;8010;53.986;12.106;2023-10-09T01:16:09;8.50;99.90
15819;DHT22;8010;53.986;12.106;2023-10-09T01:18:46;8.50;99.90
15819;DHT22;8010;53.986;12.106;2023-10-09T01:21:15;8.50;99.90
15819;DHT22;8010;53.986;12.106;2023-10-09T01:23:44;8.50;99.90
15819;DHT22;8010;53.986;12.106;2023-10-09T01:26:33;8.50;99.90
15819;DHT22;8010;53.986;12.106;2023-10-09T01:29:23;8.50;99.90
15819;DHT22;8010;53.986;12.106;2023-10-09T01:31:54;8.50;99.90
15819;DHT22;8010;53.986;12.106;2023-10-09T01:34:33;8.50;99.90
15819;DHT22;8010;53.986;12.106;2023-10-09T01:37:19;8.50;99.90
15819;DHT22;8010;53.986;12.106;2023-10-09T01:39:58;8.50;99.90
15819;DHT22;8010;53.986;12.106;2023-10-09T01:42:25;8.50;99.90
15819;DHT22;8010;53.986;12.106;2023-10-09T01:45:00;8.50;99.90
15819;DHT22;8010;53.986;12.106;2023-10-09T01:47:48;8.50;99.90
15819;DHT22;8010;53.986;12.106;2023-10-09T01:50:17;8.50;99.90
15819;DHT22;8010;53.986;12.106;2023-10-09T01:53:12;8.50;99.90
15819;DHT22;8010;53.986;12.106;2023-10-09T01:55:43;8.50;99.90
15819;DHT22;8010;53.986;12.106;2023-10-09T01:58:11;8.40;99.90
15819;DHT22;8010;53.986;12.106;2023-10-09T02:00:46;8.40;99.90
15819;DHT22;8010;53.986;12.106;2023-10-09T02:03:15;8.40;99.90
15819;DHT22;8010;53.986;12.106;2023-10-09T02:05:43;8.40;99.90
15819;DHT22;8010;53.986;12.106;2023-10-09T02:08:09;8.40;99.90
15819;DHT22;8010;53.986;12.106;2023-10-09T02:10:35;8.50;99.90
15819;DHT22;8010;53.986;12.106;2023-10-09T02:13:05;8.50;99.90
15819;DHT22;8010;53.986;12.106;2023-10-09T02:15:38;8.40;99.90
15819;DHT22;8010;53.986;12.106;2023-10-09T02:18:14;8.40;99.90
15819;DHT22;8010;53.986;12.106;2023-10-09T02:20:47;8.40;99.90
15819;DHT22;8010;53.986;12.106;2023-10-09T02:23:20;8.30;99.90
15819;DHT22;8010;53.986;12.106;2023-10-09T02:25:50;8.20;99.90
15819;DHT22;8010;53.986;12.106;2023-10-09T02:28:18;8.20;99.90
15819;DHT22;8010;53.986;12.106;2023-10-09T02:30:47;8.20;99.90
15819;DHT22;8010;53.986;12.106;2023-10-09T02:33:16;8.20;99.90
15819;DHT22;8010;53.986;12.106;2023-10-09T02:35:53;8.20;99.90
15819;DHT22;8010;53.986;12.106;2023-10-09T02:38:20;8.10;99.90
15819;DHT22;8010;53.986;12.106;2023-10-09T02:40:50;8.10;99.90
15819;DHT22;8010;53.986;12.106;2023-10-09T02:43:32;8.10;99.90
15819;DHT22;8010;53.986;12.106;2023-10-09T02:46:14;8.20;99.90
15819;DHT22;8010;53.986;12.106;2023-10-09T02:48:46;8.20;99.90
15819;DHT22;8010;53.986;12.106;2023-10-09T02:51:26;8.20;99.90
15819;DHT22;8010;53.986;12.106;2023-10-09T02:53:52;8.20;99.90
15819;DHT22;8010;53.986;12.106;2023-10-09T02:56:18;8.20;99.90
15819;DHT22;8010;53.986;12.106;2023-10-09T02:58:53;8.20;99.90
15819;DHT22;8010;53.986;12.106;2023-10-09T03:01:19;8.20;99.90
15819;DHT22;8010;53.986;12.106;2023-10-09T03:03:45;8.30;99.90
15819;DHT22;8010;53.986;12.106;2023-10-09T03:06:11;8.30;99.90
15819;DHT22;8010;53.986;12.106;2023-10-09T03:08:38;8.30;99.90
15819;DHT22;8010;53.986;12.106;2023-10-09T03:11:04;8.40;99.90
15819;DHT22;8010;53.986;12.106;2023-10-09T03:13:32;8.40;99.90
15819;DHT22;8010;53.986;12.106;2023-10-09T03:15:58;8.40;99.90
15819;DHT22;8010;53.986;12.106;2023-10-09T03:18:24;8.40;99.90
15819;DHT22;8010;53.986;12.106;2023-10-09T03:20:49;8.40;99.90
15819;DHT22;8010;53.986;12.106;2023-10-09T03:23:15;8.40;99.90
15819;DHT22;8010;53.986;12.106;2023-10-09T03:25:41;8.40;99.90
15819;DHT22;8010;53.986;12.106;2023-10-09T03:28:11;8.50;99.90
15819;DHT22;8010;53.986;12.106;2023-10-09T03:30:37;8.50;99.90
15819;DHT22;8010;53.986;12.106;2023-10-09T03:33:05;8.50;99.90
15819;DHT22;8010;53.986;12.106;2023-10-09T03:35:32;8.50;99.90
15819;DHT22;8010;53.986;12.106;2023-10-09T03:37:59;8.50;99.90
15819;DHT22;8010;53.986;12.106;2023-10-09T03:40:40;8.50;99.90
15819;DHT22;8010;53.986;12.106;2023-10-09T03:43:08;8.50;99.90
15819;DHT22;8010;53.986;12.106;2023-10-09T03:45:36;8.50;99.90
15819;DHT22;8010;53.986;12.106;2023-10-09T03:48:04;8.60;99.90
15819;DHT22;8010;53.986;12.106;2023-10-09T03:50:51;8.60;99.90
15819;DHT22;8010;53.986;12.106;2023-10-09T03:53:36;8.60;99.90
15819;DHT22;8010;53.986;12.106;2023-10-09T03:56:03;8.60;99.90
15819;DHT22;8010;53.986;12.106;2023-10-09T03:58:34;8.60;99.90
15819;DHT22;8010;53.986;12.106;2023-10-09T04:01:00;8.60;99.90
15819;DHT22;8010;53.986;12.106;2023-10-09T04:03:25;8.60;99.90
15819;DHT22;8010;53.986;12.106;2023-10-09T04:05:51;8.60;99.90
15819;DHT22;8010;53.986;12.106;2023-10-09T04:08:18;8.60;99.90
15819;DHT22;8010;53.986;12.106;2023-10-09T04:10:55;8.60;99.90
15819;DHT22;8010;53.986;12.106;2023-10-09T04:13:28;8.60;99.90
15819;DHT22;8010;53.986;12.106;2023-10-09T04:16:03;8.60;99.90
15819;DHT22;8010;53.986;12.106;2023-10-09T04:18:47;8.60;99.90
15819;DHT22;8010;53.986;12.106;2023-10-09T04:21:12;8.60;99.90
15819;DHT22;8010;53.986;12.106;2023-10-09T04:23:49;8.60;99.90
15819;DHT22;8010;53.986;12.106;2023-10-09T04:26:33;8.60;99.90
15819;DHT22;8010;53.986;12.106;2023-10-09T04:29:00;8.60;99.90
15819;DHT22;8010;53.986;12.106;2023-10-09T04:31:27;8.60;99.90
15819;DHT22;8010;53.986;12.106;2023-10-09T04:33:58;8.60;99.90
15819;DHT22;8010;53.986;12.106;2023-10-09T04:36:43;8.60;99.90
15819;DHT22;8010;53.986;12.106;2023-10-09T04:39:12;8.60;99.90
15819;DHT22;8010;53.986;12.106;2023-10-09T04:41:37;8.60;99.90
15819;DHT22;8010;53.986;12.106;2023-10-09T04:44:09;8.60;99.90
15819;DHT22;8010;53.986;12.106;2023-10-09T04:46:48;8.60;99.90
15819;DHT22;8010;53.986;12.106;2023-10-09T04:49:33;8.60;99.90
15819;DHT22;8010;53.986;12.106;2023-10-09T04:52:18;8.60;99.90
15819;DHT22;8010;53.986;12.106;2023-10-09T04:54:45;8.60;99.90
15819;DHT22;8010;53.986;12.106;2023-10-09T04:57:29;8.60;99.90
15819;DHT22;8010;53.986;12.106;2023-10-09T04:59:55;8.50;99.90
15819;DHT22;8010;53.986;12.106;2023-10-09T05:02:24;8.50;99.90
15819;DHT22;8010;53.986;12.106;2023-10-09T05:04:50;8.50;99.90
15819;DHT22;8010;53.986;12.106;2023-10-09T05:07:38;8.50;99.90
15819;DHT22;8010;53.986;12.106;2023-10-09T05:10:22;8.50;99.90
15819;DHT22;8010;53.986;12.106;2023-10-09T05:12:51;8.50;99.90
15819;DHT22;8010;53.986;12.106;2023-10-09T05:15:25;8.50;99.90
15819;DHT22;8010;53.986;12.106;2023-10-09T05:17:59;8.50;99.90
15819;DHT22;8010;53.986;12.106;2023-10-09T05:20:34;8.50;99.90
15819;DHT22;8010;53.986;12.106;2023-10-09T05:23:18;8.50;99.90
15819;DHT22;8010;53.986;12.106;2023-10-09T05:25:51;8.50;99.90
15819;DHT22;8010;53.986;12.106;2023-10-09T05:28:20;8.60;99.90
15819;DHT22;8010;53.986;12.106;2023-10-09T05:31:14;8.50;99.90
15819;DHT22;8010;53.986;12.106;2023-10-09T05:33:59;8.50;99.90
15819;DHT22;8010;53.986;12.106;2023-10-09T05:36:27;8.50;99.90
15819;DHT22;8010;53.986;12.106;2023-10-09T05:38:52;8.50;99.90
15819;DHT22;8010;53.986;12.106;2023-10-09T05:41:38;8.50;99.90
15819;DHT22;8010;53.986;12.106;2023-10-09T05:44:25;8.50;99.90
15819;DHT22;8010;53.986;12.106;2023-10-09T05:47:09;8.50;99.90
15819;DHT22;8010;53.986;12.106;2023-10-09T05:49:53;8.50;99.90
15819;DHT22;8010;53.986;12.106;2023-10-09T05:52:38;8.50;99.90
15819;DHT22;8010;53.986;12.106;2023-10-09T05:55:05;8.50;99.90
15819;DHT22;8010;53.986;12.106;2023-10-09T05:57:53;8.60;99.90
15819;DHT22;8010;53.986;12.106;2023-10-09T06:00:22;8.60;99.90
15819;DHT22;8010;53.986;12.106;2023-10-09T06:03:06;8.60;99.90
15819;DHT22;8010;53.986;12.106;2023-10-09T06:05:50;8.50;99.90
15819;DHT22;8010;53.986;12.106;2023-10-09T06:08:19;8.70;99.90
15819;DHT22;8010;53.986;12.106;2023-10-09T06:11:03;8.60;99.90
15819;DHT22;8010;53.986;12.106;2023-10-09T06:13:52;8.60;99.90
15819;DHT22;8010;53.986;12.106;2023-10-09T06:16:41;8.60;99.90
15819;DHT22;8010;53.986;12.106;2023-10-09T06:19:11;8.70;99.90
15819;DHT22;8010;53.986;12.106;2023-10-09T06:21:41;8.70;99.90
15819;DHT22;8010;53.986;12.106;2023-10-09T06:24:12;8.70;99.90
15819;DHT22;8010;53.986;12.106;2023-10-09T06:26:44;8.70;99.90
15819;DHT22;8010;53.986;12.106;2023-10-09T06:29:36;8.70;99.90
15819;DHT22;8010;53.986;12.106;2023-10-09T06:32:08;8.70;99.90
15819;DHT22;8010;53.986;12.106;2023-10-09T06:35:02;8.70;99.90
15819;DHT22;8010;53.986;12.106;2023-10-09T06:37:50;8.80;99.90
15819;DHT22;8010;53.986;12.106;2023-10-09T06:40:33;8.90;99.90
15819;DHT22;8010;53.986;12.106;2023-10-09T06:43:18;8.90;99.90
15819;DHT22;8010;53.986;12.106;2023-10-09T06:45:47;9.00;99.90
15819;DHT22;8010;53.986;12.106;2023-10-09T06:48:21;9.00;99.90
15819;DHT22;8010;53.986;12.106;2023-10-09T06:51:03;9.10;99.90
15819;DHT22;8010;53.986;12.106;2023-10-09T06:53:33;9.20;99.90
15819;DHT22;8010;53.986;12.106;2023-10-09T06:56:27;9.20;99.90
15819;DHT22;8010;53.986;12.106;2023-10-09T06:58:59;9.20;99.90
15819;DHT22;8010;53.986;12.106;2023-10-09T07:01:29;9.30;99.90
15819;DHT22;8010;53.986;12.106;2023-10-09T07:04:04;9.30;99.90
15819;DHT22;8010;53.986;12.106;2023-10-09T07:06:55;9.80;99.90
15819;DHT22;8010;53.986;12.106;2023-10-09T07:09:22;9.30;99.90
15819;DHT22;8010;53.986;12.106;2023-10-09T07:11:51;9.40;99.90
15819;DHT22;8010;53.986;12.106;2023-10-09T07:14:21;9.40;99.90
15819;DHT22;8010;53.986;12.106;2023-10-09T07:17:06;9.50;99.90
15819;DHT22;8010;53.986;12.106;2023-10-09T07:19:51;9.50;99.90
15819;DHT22;8010;53.986;12.106;2023-10-09T07:22:20;9.60;99.90
15819;DHT22;8010;53.986;12.106;2023-10-09T07:24:46;9.60;99.90
15819;DHT22;8010;53.986;12.106;2023-10-09T07:27:38;9.60;99.90
15819;DHT22;8010;53.986;12.106;2023-10-09T07:30:14;9.70;99.90
15819;DHT22;8010;53.986;12.106;2023-10-09T07:32:58;9.80;99.90
15819;DHT22;8010;53.986;12.106;2023-10-09T07:38:15;9.80;99.90
15819;DHT22;8010;53.986;12.106;2023-10-09T07:40:45;9.90;99.90
15819;DHT22;8010;53.986;12.106;2023-10-09T07:43:22;9.90;99.90
15819;DHT22;8010;53.986;12.106;2023-10-09T07:46:02;9.90;99.90
15819;DHT22;8010;53.986;12.106;2023-10-09T07:48:31;10.00;99.90
15819;DHT22;8010;53.986;12.106;2023-10-09T07:51:14;10.10;99.90
15819;DHT22;8010;53.986;12.106;2023-10-09T07:53:40;10.10;99.90
15819;DHT22;8010;53.986;12.106;2023-10-09T07:56:10;10.20;99.90
15819;DHT22;8010;53.986;12.106;2023-10-09T07:58:39;10.20;99.90
15819;DHT22;8010;53.986;12.106;2023-10-09T08:01:12;10.30;99.90
15819;DHT22;8010;53.986;12.106;2023-10-09T08:03:46;10.20;99.90
15819;DHT22;8010;53.986;12.106;2023-10-09T08:06:12;10.30;99.90
15819;DHT22;8010;53.986;12.106;2023-10-09T08:08:57;10.30;99.90
15819;DHT22;8010;53.986;12.106;2023-10-09T08:11:30;10.40;99.90
15819;DHT22;8010;53.986;12.106;2023-10-09T08:14:05;10.40;99.90
15819;DHT22;8010;53.986;12.106;2023-10-09T08:16:54;10.50;99.90
15819;DHT22;8010;53.986;12.106;2023-10-09T08:19:38;10.50;99.90
15819;DHT22;8010;53.986;12.106;2023-10-09T08:22:18;10.50;99.90
15819;DHT22;8010;53.986;12.106;2023-10-09T08:24:49;10.60;99.90
15819;DHT22;8010;53.986;12.106;2023-10-09T08:27:21;10.60;99.90
15819;DHT22;8010;53.986;12.106;2023-10-09T08:30:12;10.70;99.90
15819;DHT22;8010;53.986;12.106;2023-10-09T08:32:47;10.80;99.90
15819;DHT22;8010;53.986;12.106;2023-10-09T08:35:35;10.80;99.90
15819;DHT22;8010;53.986;12.106;2023-10-09T08:38:14;10.90;99.90
15819;DHT22;8010;53.986;12.106;2023-10-09T08:40:40;10.90;99.90
15819;DHT22;8010;53.986;12.106;2023-10-09T08:43:19;11.00;99.90
15819;DHT22;8010;53.986;12.106;2023-10-09T08:45:47;10.90;99.90
15819;DHT22;8010;53.986;12.106;2023-10-09T08:48:13;11.00;99.90
15819;DHT22;8010;53.986;12.106;2023-10-09T08:50:42;11.10;99.90
15819;DHT22;8010;53.986;12.106;2023-10-09T08:53:10;11.00;99.90
15819;DHT22;8010;53.986;12.106;2023-10-09T08:55:36;11.00;99.90
15819;DHT22;8010;53.986;12.106;2023-10-09T08:58:03;11.10;99.90
15819;DHT22;8010;53.986;12.106;2023-10-09T09:00:32;11.20;99.90
15819;DHT22;8010;53.986;12.106;2023-10-09T09:02:59;11.20;99.90
15819;DHT22;8010;53.986;12.106;2023-10-09T09:05:28;11.30;99.90
15819;DHT22;8010;53.986;12.106;2023-10-09T09:07:54;11.40;99.90
15819;DHT22;8010;53.986;12.106;2023-10-09T09:10:28;11.50;99.90
15819;DHT22;8010;53.986;12.106;2023-10-09T09:13:04;11.60;99.90
15819;DHT22;8010;53.986;12.106;2023-10-09T09:15:31;11.70;99.90
15819;DHT22;8010;53.986;12.106;2023-10-09T09:18:04;11.70;99.90
15819;DHT22;8010;53.986;12.106;2023-10-09T09:20:36;11.90;99.90
15819;DHT22;8010;53.986;12.106;2023-10-09T09:23:11;12.10;99.90
15819;DHT22;8010;53.986;12.106;2023-10-09T09:28:11;12.60;99.90
15819;DHT22;8010;53.986;12.106;2023-10-09T09:30:38;12.80;99.90
15819;DHT22;8010;53.986;12.106;2023-10-09T09:36:05;13.30;99.90
15819;DHT22;8010;53.986;12.106;2023-10-09T09:38:32;13.40;99.90
15819;DHT22;8010;53.986;12.106;2023-10-09T09:41:16;13.50;99.90
15819;DHT22;8010;53.986;12.106;2023-10-09T09:43:59;13.60;99.90
15819;DHT22;8010;53.986;12.106;2023-10-09T09:46:31;13.60;99.90
15819;DHT22;8010;53.986;12.106;2023-10-09T09:49:01;13.70;99.90
15819;DHT22;8010;53.986;12.106;2023-10-09T09:51:30;13.80;99.90
15819;DHT22;8010;53.986;12.106;2023-10-09T09:53:55;13.90;99.90
15819;DHT22;8010;53.986;12.106;2023-10-09T09:56:24;14.00;99.90
15819;DHT22;8010;53.986;12.106;2023-10-09T09:58:51;13.90;99.90
15819;DHT22;8010;53.986;12.106;2023-10-09T10:01:26;13.80;99.90
15819;DHT22;8010;53.986;12.106;2023-10-09T10:04:01;13.70;99.90
15819;DHT22;8010;53.986;12.106;2023-10-09T10:06:30;13.70;99.90
15819;DHT22;8010;53.986;12.106;2023-10-09T10:08:58;13.70;99.90
15819;DHT22;8010;53.986;12.106;2023-10-09T10:11:47;13.60;99.90
15819;DHT22;8010;53.986;12.106;2023-10-09T10:14:17;13.60;99.90
15819;DHT22;8010;53.986;12.106;2023-10-09T10:17:06;13.60;99.90
15819;DHT22;8010;53.986;12.106;2023-10-09T10:22:27;13.50;99.90
15819;DHT22;8010;53.986;12.106;2023-10-09T10:24:53;13.50;99.90
15819;DHT22;8010;53.986;12.106;2023-10-09T10:27:21;13.40;99.90
15819;DHT22;8010;53.986;12.106;2023-10-09T10:35:18;13.80;99.90
15819;DHT22;8010;53.986;12.106;2023-10-09T10:37:46;13.40;99.90
15819;DHT22;8010;53.986;12.106;2023-10-09T10:40:27;13.40;99.90
15819;DHT22;8010;53.986;12.106;2023-10-09T10:43:18;13.50;99.90
15819;DHT22;8010;53.986;12.106;2023-10-09T10:46:10;13.40;99.90
15819;DHT22;8010;53.986;12.106;2023-10-09T10:48:54;13.30;99.90
15819;DHT22;8010;53.986;12.106;2023-10-09T10:51:26;13.30;99.90
15819;DHT22;8010;53.986;12.106;2023-10-09T10:54:01;13.20;99.90
15819;DHT22;8010;53.986;12.106;2023-10-09T10:56:47;13.20;99.90
15819;DHT22;8010;53.986;12.106;2023-10-09T10:59:19;13.20;99.90
15819;DHT22;8010;53.986;12.106;2023-10-09T11:01:49;13.10;99.90
15819;DHT22;8010;53.986;12.106;2023-10-09T11:04:45;13.10;99.90
15819;DHT22;8010;53.986;12.106;2023-10-09T11:07:21;13.10;99.90
15819;DHT22;8010;53.986;12.106;2023-10-09T11:09:52;13.00;99.90
15819;DHT22;8010;53.986;12.106;2023-10-09T11:12:30;13.00;99.90
15819;DHT22;8010;53.986;12.106;2023-10-09T11:15:11;13.00;99.90
15819;DHT22;8010;53.986;12.106;2023-10-09T11:17:57;13.10;99.90
15819;DHT22;8010;53.986;12.106;2023-10-09T11:20:23;13.10;99.90
15819;DHT22;8010;53.986;12.106;2023-10-09T11:22:52;13.20;99.90
15819;DHT22;8010;53.986;12.106;2023-10-09T11:25:43;13.20;99.90
15819;DHT22;8010;53.986;12.106;2023-10-09T11:28:20;13.10;99.90
15819;DHT22;8010;53.986;12.106;2023-10-09T11:31:09;13.10;99.90
15819;DHT22;8010;53.986;12.106;2023-10-09T11:33:44;13.20;99.90
15819;DHT22;8010;53.986;12.106;2023-10-09T11:36:10;13.20;99.90
15819;DHT22;8010;53.986;12.106;2023-10-09T11:38:37;13.20;99.90
15819;DHT22;8010;53.986;12.106;2023-10-09T11:41:12;13.20;99.90
15819;DHT22;8010;53.986;12.106;2023-10-09T11:43:52;13.20;99.90
15819;DHT22;8010;53.986;12.106;2023-10-09T11:46:18;13.10;99.90
15819;DHT22;8010;53.986;12.106;2023-10-09T11:49:13;13.00;99.90
15819;DHT22;8010;53.986;12.106;2023-10-09T11:51:51;13.00;99.90
15819;DHT22;8010;53.986;12.106;2023-10-09T11:54:35;13.10;99.90
15819;DHT22;8010;53.986;12.106;2023-10-09T11:57:02;13.10;99.90
15819;DHT22;8010;53.986;12.106;2023-10-09T11:59:28;13.10;99.90
15819;DHT22;8010;53.986;12.106;2023-10-09T12:02:00;13.10;99.90
15819;DHT22;8010;53.986;12.106;2023-10-09T12:04:26;13.10;99.90
15819;DHT22;8010;53.986;12.106;2023-10-09T12:06:56;13.20;99.90
15819;DHT22;8010;53.986;12.106;2023-10-09T12:09:32;13.20;99.90
15819;DHT22;8010;53.986;12.106;2023-10-09T12:12:03;13.30;99.90
15819;DHT22;8010;53.986;12.106;2023-10-09T12:14:28;13.30;99.90
15819;DHT22;8010;53.986;12.106;2023-10-09T12:16:59;13.30;99.90
15819;DHT22;8010;53.986;12.106;2023-10-09T12:19:31;13.20;99.90
15819;DHT22;8010;53.986;12.106;2023-10-09T12:21:57;13.10;99.90
15819;DHT22;8010;53.986;12.106;2023-10-09T12:24:26;13.10;99.90
15819;DHT22;8010;53.986;12.106;2023-10-09T12:26:52;13.20;99.90
15819;DHT22;8010;53.986;12.106;2023-10-09T12:29:18;13.30;99.90
15819;DHT22;8010;53.986;12.106;2023-10-09T12:31:45;13.20;99.90
15819;DHT22;8010;53.986;12.106;2023-10-09T12:34:11;13.10;99.90
15819;DHT22;8010;53.986;12.106;2023-10-09T12:36:42;13.10;99.90
15819;DHT22;8010;53.986;12.106;2023-10-09T12:39:09;13.20;99.90
15819;DHT22;8010;53.986;12.106;2023-10-09T12:41:43;13.10;99.90
15819;DHT22;8010;53.986;12.106;2023-10-09T12:44:09;13.20;99.90
15819;DHT22;8010;53.986;12.106;2023-10-09T12:46:40;13.30;99.90
15819;DHT22;8010;53.986;12.106;2023-10-09T12:49:06;13.30;99.90
15819;DHT22;8010;53.986;12.106;2023-10-09T12:51:32;13.30;99.90
15819;DHT22;8010;53.986;12.106;2023-10-09T12:53:57;13.30;99.90
15819;DHT22;8010;53.986;12.106;2023-10-09T12:56:24;13.30;99.90
15819;DHT22;8010;53.986;12.106;2023-10-09T12:59:01;13.30;99.90
15819;DHT22;8010;53.986;12.106;2023-10-09T13:01:30;13.30;99.90
15819;DHT22;8010;53.986;12.106;2023-10-09T13:04:00;13.30;99.90
15819;DHT22;8010;53.986;12.106;2023-10-09T13:06:26;13.30;99.90
15819;DHT22;8010;53.986;12.106;2023-10-09T13:08:53;13.20;99.90
15819;DHT22;8010;53.986;12.106;2023-10-09T13:11:21;13.30;99.90
15819;DHT22;8010;53.986;12.106;2023-10-09T13:13:47;13.30;99.90
15819;DHT22;8010;53.986;12.106;2023-10-09T13:16:20;13.30;99.90
15819;DHT22;8010;53.986;12.106;2023-10-09T13:18:52;13.20;99.90
15819;DHT22;8010;53.986;12.106;2023-10-09T13:21:18;13.20;99.90
15819;DHT22;8010;53.986;12.106;2023-10-09T13:23:44;13.50;99.90
15819;DHT22;8010;53.986;12.106;2023-10-09T13:26:15;13.20;99.90
15819;DHT22;8010;53.986;12.106;2023-10-09T13:28:45;13.20;99.90
15819;DHT22;8010;53.986;12.106;2023-10-09T13:31:13;13.20;99.90
15819;DHT22;8010;53.986;12.106;2023-10-09T13:33:40;13.20;99.90
15819;DHT22;8010;53.986;12.106;2023-10-09T13:36:06;13.20;99.90
15819;DHT22;8010;53.986;12.106;2023-10-09T13:38:42;13.20;99.90
15819;DHT22;8010;53.986;12.106;2023-10-09T13:41:11;13.20;99.90
15819;DHT22;8010;53.986;12.106;2023-10-09T13:43:41;13.20;99.90
15819;DHT22;8010;53.986;12.106;2023-10-09T13:46:10;13.20;99.90
15819;DHT22;8010;53.986;12.106;2023-10-09T13:48:43;13.20;99.90
15819;DHT22;8010;53.986;12.106;2023-10-09T13:51:11;13.20;99.90
15819;DHT22;8010;53.986;12.106;2023-10-09T13:53:43;13.20;99.90
15819;DHT22;8010;53.986;12.106;2023-10-09T13:56:20;13.20;99.90
15819;DHT22;8010;53.986;12.106;2023-10-09T13:58:50;13.20;99.90
15819;DHT22;8010;53.986;12.106;2023-10-09T14:01:19;13.30;99.90
15819;DHT22;8010;53.986;12.106;2023-10-09T14:03:58;13.20;99.90
15819;DHT22;8010;53.986;12.106;2023-10-09T14:06:24;13.20;99.90
15819;DHT22;8010;53.986;12.106;2023-10-09T14:09:01;13.20;99.90
15819;DHT22;8010;53.986;12.106;2023-10-09T14:11:33;13.30;99.90
15819;DHT22;8010;53.986;12.106;2023-10-09T14:14:04;13.30;99.90
15819;DHT22;8010;53.986;12.106;2023-10-09T14:16:37;13.20;99.90
15819;DHT22;8010;53.986;12.106;2023-10-09T14:19:08;13.20;99.90
15819;DHT22;8010;53.986;12.106;2023-10-09T14:21:38;13.20;99.90
15819;DHT22;8010;53.986;12.106;2023-10-09T14:24:06;13.20;99.90
15819;DHT22;8010;53.986;12.106;2023-10-09T14:26:41;13.20;99.90
15819;DHT22;8010;53.986;12.106;2023-10-09T14:29:07;13.20;99.90
15819;DHT22;8010;53.986;12.106;2023-10-09T14:31:33;13.10;99.90
15819;DHT22;8010;53.986;12.106;2023-10-09T14:34:04;13.10;99.90
15819;DHT22;8010;53.986;12.106;2023-10-09T14:36:30;13.10;99.90
15819;DHT22;8010;53.986;12.106;2023-10-09T14:39:00;13.10;99.90
15819;DHT22;8010;53.986;12.106;2023-10-09T14:41:26;13.10;99.90
15819;DHT22;8010;53.986;12.106;2023-10-09T14:43:53;13.10;99.90
15819;DHT22;8010;53.986;12.106;2023-10-09T14:46:20;13.10;99.90
15819;DHT22;8010;53.986;12.106;2023-10-09T14:48:53;13.20;99.90
15819;DHT22;8010;53.986;12.106;2023-10-09T14:51:21;13.20;99.90
15819;DHT22;8010;53.986;12.106;2023-10-09T14:53:53;13.10;99.90
15819;DHT22;8010;53.986;12.106;2023-10-09T14:56:19;13.10;99.90
15819;DHT22;8010;53.986;12.106;2023-10-09T14:58:54;13.10;99.90
15819;DHT22;8010;53.986;12.106;2023-10-09T15:01:21;13.10;99.90
15819;DHT22;8010;53.986;12.106;2023-10-09T15:03:50;13.10;99.90
15819;DHT22;8010;53.986;12.106;2023-10-09T15:06:18;13.10;99.90
15819;DHT22;8010;53.986;12.106;2023-10-09T15:08:44;13.10;99.90
15819;DHT22;8010;53.986;12.106;2023-10-09T15:11:10;13.10;99.90
15819;DHT22;8010;53.986;12.106;2023-10-09T15:13:36;13.10;99.90
15819;DHT22;8010;53.986;12.106;2023-10-09T15:16:05;13.10;99.90
15819;DHT22;8010;53.986;12.106;2023-10-09T15:18:30;13.20;99.90
15819;DHT22;8010;53.986;12.106;2023-10-09T15:20:58;13.20;99.90
15819;DHT22;8010;53.986;12.106;2023-10-09T15:23:25;13.20;99.90
15819;DHT22;8010;53.986;12.106;2023-10-09T15:25:50;13.20;99.90
15819;DHT22;8010;53.986;12.106;2023-10-09T15:28:22;13.20;99.90
15819;DHT22;8010;53.986;12.106;2023-10-09T15:30:48;13.30;99.90
15819;DHT22;8010;53.986;12.106;2023-10-09T15:33:17;13.20;99.90
15819;DHT22;8010;53.986;12.106;2023-10-09T15:35:44;13.20;99.90
15819;DHT22;8010;53.986;12.106;2023-10-09T15:38:15;13.10;99.90
15819;DHT22;8010;53.986;12.106;2023-10-09T15:40:41;13.10;99.90
15819;DHT22;8010;53.986;12.106;2023-10-09T15:43:09;13.10;99.90
15819;DHT22;8010;53.986;12.106;2023-10-09T15:45:42;13.10;99.90
15819;DHT22;8010;53.986;12.106;2023-10-09T15:48:08;13.10;99.90
15819;DHT22;8010;53.986;12.106;2023-10-09T15:50:33;13.00;99.90
15819;DHT22;8010;53.986;12.106;2023-10-09T15:53:00;13.10;99.90
15819;DHT22;8010;53.986;12.106;2023-10-09T15:55:28;13.00;99.90
15819;DHT22;8010;53.986;12.106;2023-10-09T15:57:54;13.00;99.90
15819;DHT22;8010;53.986;12.106;2023-10-09T16:00:21;12.90;99.90
15819;DHT22;8010;53.986;12.106;2023-10-09T16:02:48;12.90;99.90
15819;DHT22;8010;53.986;12.106;2023-10-09T16:05:14;12.90;99.90
15819;DHT22;8010;53.986;12.106;2023-10-09T16:07:42;12.90;99.90
15819;DHT22;8010;53.986;12.106;2023-10-09T16:10:09;12.90;99.90
15819;DHT22;8010;53.986;12.106;2023-10-09T16:12:39;12.90;99.90
15819;DHT22;8010;53.986;12.106;2023-10-09T16:15:06;12.80;99.90
15819;DHT22;8010;53.986;12.106;2023-10-09T16:17:35;12.80;99.90
15819;DHT22;8010;53.986;12.106;2023-10-09T16:20:01;12.80;99.90
15819;DHT22;8010;53.986;12.106;2023-10-09T16:22:27;12.80;99.90
15819;DHT22;8010;53.986;12.106;2023-10-09T16:24:58;12.80;99.90
15819;DHT22;8010;53.986;12.106;2023-10-09T16:27:25;12.70;99.90
15819;DHT22;8010;53.986;12.106;2023-10-09T16:29:51;12.70;99.90